METAR Data
IDs: Format: Raw Decoded Include TAF

Data at: 0932 UTC 07 Dec 2021

KMLB 070853Z AUTO 28003KT 4SM BR CLR 16/16 A3005 RMK AO2 SLP176 60000 T01610156 55002 $
KMLB 070753Z AUTO 27005KT 10SM CLR 17/16 A3005 RMK AO2 RAB24E33 SLP174 P0000 T01670156 $
KMLB 070653Z AUTO 27004KT 10SM CLR 17/16 A3005 RMK AO2 SLP175 T01720161 $
KMLB 070553Z AUTO 28005KT 10SM CLR 17/15 A3006 RMK AO2 SLP178 T01670150 10239 20167 58008 $
KMLB 070453Z AUTO 29004KT 10SM CLR 18/16 A3008 RMK AO2 SLP186 T01830161 402780150 TSNO $
KMLB 070353Z 28005KT 10SM CLR 19/16 A3009 RMK AO2 SLP187 T01890161 $
KMLB 070253Z 27007KT 10SM CLR 20/18 A3008 RMK AO2 SLP186 T02000183 51006 $
KMLB 070153Z 22004KT 10SM FEW055 22/20 A3008 RMK AO2 SLP185 T02170200 $
KMLB 070053Z 00000KT 10SM BKN055 22/20 A3008 RMK AO2 SLP184 T02220200 $
KMLB 062353Z 17003KT 10SM BKN055 23/19 A3006 RMK AO2 SLP180 T02280194 10278 20228 53013 $
KMLB 062253Z 14006KT 10SM SCT050 24/20 A3004 RMK AO2 SLP173 T02390200 $
KMLB 062153Z 12006KT 10SM CLR 24/20 A3003 RMK AO2 SLP167 T02440200 $
KMLB 062053Z 15007KT 10SM FEW060 27/21 A3003 RMK AO2 SLP167 T02670206 56017 $
KMLB 061953Z 13007KT 10SM FEW036 OVC065 26/20 A3003 RMK AO2 SLP169 T02560200 $
KMLB 061853Z 14006KT 10SM FEW034 OVC055 27/20 A3005 RMK AO2 SLP175 T02720200 $
KMLB 061753Z VRB03KT 10SM SCT036 OVC060 27/19 A3008 RMK AO2 SLP185 T02670194 10278 20150 58025 $
KMLB 061653Z 00000KT 10SM BKN035 OVC065 27/19 A3010 RMK AO2 SLP192 T02670189 $
KMLB 061553Z 00000KT 10SM CLR 26/19 A3013 RMK AO2 SLP203 T02610189 $
KMLB 061453Z 00000KT 10SM CLR 24/21 A3015 RMK AO2 SLP209 T02440206 51011 $
KMLB 061353Z 00000KT 10SM CLR 22/19 A3015 RMK AO2 SLP207 T02170194 $
KMLB 061311Z 00000KT 7SM FEW002 18/18 A3014 RMK AO2 T01780178 $
KMLB 061253Z 00000KT 6SM BR BKN002 17/17 A3013 RMK AO2 SLP203 T01670167 $
KMLB 061248Z 00000KT 4SM R09R/3500VP6000FT BR BKN002 17/16 A3013 RMK AO2 $
KMLB 061245Z 00000KT 1SM R09R/2800VP6000FT BR VV002 17/16 A3013 RMK AO2 T01670161 $
KMLB 061237Z 00000KT 1/4SM R09R/2200V3000FT FG VV002 16/16 A3013 RMK AO2 T01560156 $
KMLB 061213Z 00000KT 1/4SM R09R/1600V2200FT FG VV002 16/15 A3012 RMK AO2 T01560150 $
KMLB 061153Z 00000KT 1/4SM R09R/2200VP6000FT FG VV002 15/15 A3012 RMK AO2 SLP198 T01500150 10178 20150 53005 $
KMLB 061145Z 00000KT 1/4SM R09R/2400V4000FT FG VV002 16/15 A3012 RMK AO2 T01560150 $
KMLB 061133Z 29003KT 1/2SM R09R/3000V5500FT FG VV002 16/15 A3012 RMK AO2 T01560150 $
KMLB 061126Z 29003KT 1/4SM R09R/2200V5500FT FG VV002 16/15 A3012 RMK AO2 T01560150 $
KMLB 061053Z 29003KT 1/2SM R09R/3000V4500FT FG VV002 16/15 A3011 RMK AO2 SLP196 T01560150 $
KMLB 061032Z AUTO 00000KT 1/4SM R09R/2200V2800FT FG VV002 16/15 A3011 RMK AO2 T01560150 $
KMLB 060953Z AUTO 29003KT 1/2SM R09R/3000V4500FT FG VV002 16/16 A3011 RMK AO2 SLP195 T01610156 PWINO $
KMLB 060935Z AUTO 00000KT 1/2SM R09R/2600VP6000FT FG VV002 17/16 A3011 RMK AO2 T01670161 $
KMLB 060919Z AUTO 00000KT 1/4SM R09R/4500VP6000FT FG VV002 17/16 A3010 RMK AO2 T01670161 $
KMLB 060910Z AUTO 00000KT 1/4SM R09R/3000VP6000FT FG VV001 17/16 A3010 RMK AO2 T01670161 $
KMLB 060901Z AUTO 00000KT 1/2SM R09R/2000V4000FT FG VV001 17/17 A3010 RMK AO2 T01720167 $
KMLB 060853Z AUTO 00000KT 1/4SM R09R/1800V3500FT FG VV002 17/17 A3010 RMK AO2 SLP193 T01720167 58005 $
KMLB 060816Z AUTO 00000KT 1/4SM R09R/2200V5000FT FG VV001 17/17 A3010 RMK AO2 T01720167 $
KMLB 060809Z AUTO 00000KT 1/2SM R09R/1600V5000FT FG VV002 18/17 A3011 RMK AO2 T01780172 $
KMLB 060757Z AUTO 00000KT 1/4SM R09R/1800V2800FT FG VV002 17/17 A3011 RMK AO2 T01720167 PWINO $
KMLB 060753Z AUTO 00000KT 1/2SM R09R/1800V2400FT FG VV001 17/17 A3011 RMK AO2 SLP195 T01720167 $
KMLB 060731Z AUTO 29005KT 1/4SM R09R/1400V2200FT FG VV001 17/16 A3011 RMK AO2 T01670161 $
KMLB 060709Z AUTO 00000KT 1/4SM R09R/1600V3500FT FG VV001 17/17 A3011 RMK AO2 T01720172 PWINO $
KMLB 060653Z AUTO 00000KT 1/4SM R09R/0800V2000FT FG VV001 17/17 A3012 RMK AO2 SLP199 T01720167 $
KMLB 060651Z AUTO 00000KT 1/4SM R09R/0800V1600FT FG VV001 17/17 A3012 RMK AO2 PWINO $
KMLB 060642Z AUTO 00000KT 1 1/4SM R09R/1000V1600FT BR OVC001 17/17 A3012 RMK AO2 T01720167 $
KMLB 060630Z AUTO 28003KT 3/4SM R09R/1000V5000FT BR VV001 17/16 A3012 RMK AO2 VIS 1/4V5 T01670161 $
KMLB 060625Z AUTO 00000KT 1 1/2SM R09R/1000V1400FT BR OVC001 17/17 A3012 RMK AO2 T01720167 $
KMLB 060622Z AUTO 00000KT 3SM R09R/1200V1600FT BR OVC001 17/17 A3012 RMK AO2 T01720167 $
KMLB 060620Z AUTO 00000KT 1 1/4SM R09R/1000V1600FT BR OVC001 17/17 A3012 RMK AO2 T01720172 $
KMLB 060616Z AUTO 00000KT 1/2SM R09R/1000V1600FT FG VV002 18/17 A3012 RMK AO2 T01780172 $
KMLB 060609Z AUTO 00000KT 1/4SM R09R/1400V2600FT FG VV002 18/18 A3012 RMK AO2 T01830178 PWINO $
KMLB 060553Z AUTO 00000KT 3/4SM R09R/3000VP6000FT BR VV002 18/17 A3012 RMK AO2 SLP198 T01830172 10217 20183 58008 $
KMLB 060549Z AUTO 00000KT 3/4SM R09R/3000VP6000FT BR VV002 19/18 A3012 RMK AO2 PWINO $
KMLB 060540Z AUTO 00000KT 1 1/4SM R09R/2000VP6000FT BR FEW002 19/18 A3012 RMK AO2 VIS 1/2V5 T01890183 $
KMLB 060529Z AUTO 00000KT 3/4SM R09R/1600V4000FT BR VV002 18/18 A3012 RMK AO2 T01830178 $
KMLB 060525Z AUTO 00000KT 1 3/4SM R09R/2400VP6000FT BR CLR 19/18 A3012 RMK AO2 T01890183 $
KMLB 060520Z AUTO 00000KT 3SM R09R/3000VP6000FT BR CLR 19/18 A3013 RMK AO2 T01940183 $
KMLB 060513Z AUTO 00000KT 3/4SM R09R/P6000FT BR CLR 19/19 A3013 RMK AO2 T01940189 PWINO $
KMLB 060504Z AUTO 00000KT 1 1/2SM BR CLR 20/19 A3013 RMK AO2 VIS 1/2V5 T02000189 $
KMLB 060453Z AUTO 12003KT 10SM CLR 20/19 A3013 RMK AO2 SLP202 T02000189 402560128 PWINO $
KMLB 060353Z 11004KT 10SM CLR 21/19 A3014 RMK AO2 SLP206 T02110194 $
KMLB 060253Z 00000KT 10SM FEW010 SCT014 OVC046 21/19 A3014 RMK AO2 SLP206 T02110194 53006 $
KMLB 060153Z 05004KT 10SM FEW023 OVC055 22/19 A3014 RMK AO2 SLP204 T02170189 $
KMLB 060053Z 05005KT 10SM OVC060 22/19 A3013 RMK AO2 SLP201 T02170189 $
KMLB 052353Z 04004KT 10SM SCT031 OVC060 22/19 A3012 RMK AO2 SLP200 T02170189 10250 20217 53006 $
KMLB 052253Z 02005KT 10SM OVC060 22/17 A3011 RMK AO2 SLP196 T02220172 $
KMLB 052153Z 05005KT 10SM SCT041 OVC060 22/17 A3011 RMK AO2 SLP195 T02220172 $